sensor_id;sensor_type;location;lat;lon;timestamp;P1;durP1;ratioP1;P2;durP2;ratioP2
21166;SDS011;10741;52.272;9.580;2022-07-30T00:02:22;7.33;;;4.73;;
21166;SDS011;10741;52.272;9.580;2022-07-30T00:04:48;6.07;;;4.80;;
21166;SDS011;10741;52.272;9.580;2022-07-30T00:07:13;6.87;;;4.67;;
21166;SDS011;10741;52.272;9.580;2022-07-30T00:09:39;7.83;;;4.57;;
21166;SDS011;10741;52.272;9.580;2022-07-30T00:12:05;6.47;;;5.23;;
21166;SDS011;10741;52.272;9.580;2022-07-30T00:14:31;5.73;;;4.30;;
21166;SDS011;10741;52.272;9.580;2022-07-30T00:16:59;5.90;;;5.30;;
21166;SDS011;10741;52.272;9.580;2022-07-30T00:19:25;5.90;;;5.13;;
21166;SDS011;10741;52.272;9.580;2022-07-30T00:21:51;5.67;;;4.70;;
21166;SDS011;10741;52.272;9.580;2022-07-30T00:24:19;5.97;;;4.93;;
21166;SDS011;10741;52.272;9.580;2022-07-30T00:26:45;5.00;;;4.47;;
21166;SDS011;10741;52.272;9.580;2022-07-30T00:29:11;6.47;;;4.90;;
21166;SDS011;10741;52.272;9.580;2022-07-30T00:31:37;7.27;;;5.10;;
21166;SDS011;10741;52.272;9.580;2022-07-30T00:34:03;8.53;;;4.60;;
21166;SDS011;10741;52.272;9.580;2022-07-30T00:36:30;5.87;;;4.23;;
21166;SDS011;10741;52.272;9.580;2022-07-30T00:38:56;6.17;;;4.20;;
21166;SDS011;10741;52.272;9.580;2022-07-30T00:41:22;4.40;;;3.97;;
21166;SDS011;10741;52.272;9.580;2022-07-30T00:43:48;5.67;;;4.60;;
21166;SDS011;10741;52.272;9.580;2022-07-30T00:46:13;4.43;;;4.03;;
21166;SDS011;10741;52.272;9.580;2022-07-30T00:48:40;4.63;;;4.13;;
21166;SDS011;10741;52.272;9.580;2022-07-30T00:51:06;5.90;;;4.33;;
21166;SDS011;10741;52.272;9.580;2022-07-30T00:53:32;6.30;;;4.33;;
21166;SDS011;10741;52.272;9.580;2022-07-30T00:55:59;7.63;;;4.33;;
21166;SDS011;10741;52.272;9.580;2022-07-30T00:58:25;5.53;;;4.37;;
21166;SDS011;10741;52.272;9.580;2022-07-30T01:00:50;4.50;;;4.10;;
21166;SDS011;10741;52.272;9.580;2022-07-30T01:03:16;5.03;;;4.53;;
21166;SDS011;10741;52.272;9.580;2022-07-30T01:05:42;4.73;;;4.30;;
21166;SDS011;10741;52.272;9.580;2022-07-30T01:08:08;6.23;;;4.70;;
21166;SDS011;10741;52.272;9.580;2022-07-30T01:10:33;7.10;;;4.77;;
21166;SDS011;10741;52.272;9.580;2022-07-30T01:12:59;5.03;;;4.53;;
21166;SDS011;10741;52.272;9.580;2022-07-30T01:15:26;6.10;;;4.77;;
21166;SDS011;10741;52.272;9.580;2022-07-30T01:17:52;5.83;;;4.90;;
21166;SDS011;10741;52.272;9.580;2022-07-30T01:20:27;6.50;;;5.40;;
21166;SDS011;10741;52.272;9.580;2022-07-30T01:23:04;6.53;;;5.83;;
21166;SDS011;10741;52.272;9.580;2022-07-30T01:28:15;32.73;;;6.83;;
21166;SDS011;10741;52.272;9.580;2022-07-30T01:30:46;6.10;;;5.03;;
21166;SDS011;10741;52.272;9.580;2022-07-30T01:33:14;5.20;;;4.80;;
21166;SDS011;10741;52.272;9.580;2022-07-30T01:35:41;7.43;;;4.97;;
21166;SDS011;10741;52.272;9.580;2022-07-30T01:38:09;6.90;;;5.00;;
21166;SDS011;10741;52.272;9.580;2022-07-30T01:40:36;5.20;;;4.70;;
21166;SDS011;10741;52.272;9.580;2022-07-30T01:43:03;6.27;;;4.63;;
21166;SDS011;10741;52.272;9.580;2022-07-30T01:45:31;5.80;;;5.20;;
21166;SDS011;10741;52.272;9.580;2022-07-30T01:47:58;5.50;;;4.70;;
21166;SDS011;10741;52.272;9.580;2022-07-30T01:50:26;9.33;;;4.97;;
21166;SDS011;10741;52.272;9.580;2022-07-30T01:52:53;7.07;;;5.53;;
21166;SDS011;10741;52.272;9.580;2022-07-30T01:55:26;5.43;;;4.70;;
21166;SDS011;10741;52.272;9.580;2022-07-30T01:57:59;5.87;;;5.37;;
21166;SDS011;10741;52.272;9.580;2022-07-30T02:00:27;6.20;;;5.07;;
21166;SDS011;10741;52.272;9.580;2022-07-30T02:02:55;6.07;;;5.07;;
21166;SDS011;10741;52.272;9.580;2022-07-30T02:05:22;5.80;;;5.20;;
21166;SDS011;10741;52.272;9.580;2022-07-30T02:07:51;6.20;;;5.60;;
21166;SDS011;10741;52.272;9.580;2022-07-30T02:10:27;5.93;;;5.03;;
21166;SDS011;10741;52.272;9.580;2022-07-30T02:12:59;6.07;;;5.47;;
21166;SDS011;10741;52.272;9.580;2022-07-30T02:15:32;7.60;;;5.70;;
21166;SDS011;10741;52.272;9.580;2022-07-30T02:18:24;8.23;;;5.43;;
21166;SDS011;10741;52.272;9.580;2022-07-30T02:21:03;6.10;;;4.80;;
21166;SDS011;10741;52.272;9.580;2022-07-30T02:23:31;8.30;;;6.03;;
21166;SDS011;10741;52.272;9.580;2022-07-30T02:26:02;11.03;;;5.87;;
21166;SDS011;10741;52.272;9.580;2022-07-30T02:28:29;9.43;;;5.90;;
21166;SDS011;10741;52.272;9.580;2022-07-30T02:30:59;10.63;;;5.47;;
21166;SDS011;10741;52.272;9.580;2022-07-30T02:33:30;10.87;;;5.90;;
21166;SDS011;10741;52.272;9.580;2022-07-30T02:35:59;6.63;;;5.03;;
21166;SDS011;10741;52.272;9.580;2022-07-30T02:38:27;6.10;;;5.37;;
21166;SDS011;10741;52.272;9.580;2022-07-30T02:40:55;9.67;;;5.60;;
21166;SDS011;10741;52.272;9.580;2022-07-30T02:43:24;6.87;;;5.80;;
21166;SDS011;10741;52.272;9.580;2022-07-30T02:45:51;7.97;;;5.63;;
21166;SDS011;10741;52.272;9.580;2022-07-30T02:48:19;6.00;;;5.40;;
21166;SDS011;10741;52.272;9.580;2022-07-30T02:50:50;5.50;;;5.00;;
21166;SDS011;10741;52.272;9.580;2022-07-30T02:53:17;6.97;;;6.03;;
21166;SDS011;10741;52.272;9.580;2022-07-30T02:55:44;7.13;;;5.83;;
21166;SDS011;10741;52.272;9.580;2022-07-30T02:58:14;7.23;;;5.13;;
21166;SDS011;10741;52.272;9.580;2022-07-30T03:00:44;9.23;;;5.90;;
21166;SDS011;10741;52.272;9.580;2022-07-30T03:03:10;10.50;;;5.83;;
21166;SDS011;10741;52.272;9.580;2022-07-30T03:05:38;10.23;;;5.50;;
21166;SDS011;10741;52.272;9.580;2022-07-30T03:08:05;10.20;;;5.50;;
21166;SDS011;10741;52.272;9.580;2022-07-30T03:10:32;5.90;;;5.40;;
21166;SDS011;10741;52.272;9.580;2022-07-30T03:13:00;6.90;;;5.53;;
21166;SDS011;10741;52.272;9.580;2022-07-30T03:15:29;6.10;;;4.93;;
21166;SDS011;10741;52.272;9.580;2022-07-30T03:17:58;5.93;;;5.30;;
21166;SDS011;10741;52.272;9.580;2022-07-30T03:20:28;6.87;;;5.13;;
21166;SDS011;10741;52.272;9.580;2022-07-30T03:22:56;7.50;;;5.90;;
21166;SDS011;10741;52.272;9.580;2022-07-30T03:25:25;8.03;;;6.53;;
21166;SDS011;10741;52.272;9.580;2022-07-30T03:27:53;6.20;;;5.37;;
21166;SDS011;10741;52.272;9.580;2022-07-30T03:30:22;7.03;;;5.87;;
21166;SDS011;10741;52.272;9.580;2022-07-30T03:32:50;8.00;;;5.57;;
21166;SDS011;10741;52.272;9.580;2022-07-30T03:35:20;7.13;;;5.40;;
21166;SDS011;10741;52.272;9.580;2022-07-30T03:37:49;6.63;;;6.03;;
21166;SDS011;10741;52.272;9.580;2022-07-30T03:40:15;7.97;;;5.37;;
21166;SDS011;10741;52.272;9.580;2022-07-30T03:42:42;7.37;;;5.77;;
21166;SDS011;10741;52.272;9.580;2022-07-30T03:45:10;7.70;;;5.60;;
21166;SDS011;10741;52.272;9.580;2022-07-30T03:47:40;7.17;;;6.07;;
21166;SDS011;10741;52.272;9.580;2022-07-30T03:50:07;6.53;;;5.60;;
21166;SDS011;10741;52.272;9.580;2022-07-30T03:52:37;8.60;;;5.60;;
21166;SDS011;10741;52.272;9.580;2022-07-30T03:55:05;8.20;;;6.20;;
21166;SDS011;10741;52.272;9.580;2022-07-30T03:57:32;6.77;;;5.97;;
21166;SDS011;10741;52.272;9.580;2022-07-30T03:59:58;10.43;;;6.20;;
21166;SDS011;10741;52.272;9.580;2022-07-30T04:02:24;8.20;;;6.10;;
21166;SDS011;10741;52.272;9.580;2022-07-30T04:04:50;7.27;;;6.37;;
21166;SDS011;10741;52.272;9.580;2022-07-30T04:07:16;7.10;;;6.30;;
21166;SDS011;10741;52.272;9.580;2022-07-30T04:09:42;9.57;;;6.30;;
21166;SDS011;10741;52.272;9.580;2022-07-30T04:12:08;7.33;;;6.17;;
21166;SDS011;10741;52.272;9.580;2022-07-30T04:14:40;7.40;;;6.40;;
21166;SDS011;10741;52.272;9.580;2022-07-30T04:19:43;7.30;;;6.57;;
21166;SDS011;10741;52.272;9.580;2022-07-30T04:22:14;9.37;;;6.60;;
21166;SDS011;10741;52.272;9.580;2022-07-30T04:24:44;12.87;;;6.43;;
21166;SDS011;10741;52.272;9.580;2022-07-30T04:27:10;10.93;;;6.63;;
21166;SDS011;10741;52.272;9.580;2022-07-30T04:29:37;7.13;;;6.43;;
21166;SDS011;10741;52.272;9.580;2022-07-30T04:32:04;12.63;;;6.87;;
21166;SDS011;10741;52.272;9.580;2022-07-30T04:34:32;17.30;;;7.13;;
21166;SDS011;10741;52.272;9.580;2022-07-30T04:36:58;12.30;;;7.10;;
21166;SDS011;10741;52.272;9.580;2022-07-30T04:39:23;14.87;;;7.40;;
21166;SDS011;10741;52.272;9.580;2022-07-30T04:41:49;7.23;;;6.53;;
21166;SDS011;10741;52.272;9.580;2022-07-30T04:44:16;11.87;;;6.53;;
21166;SDS011;10741;52.272;9.580;2022-07-30T04:46:42;13.23;;;6.93;;
21166;SDS011;10741;52.272;9.580;2022-07-30T04:49:09;9.80;;;6.97;;
21166;SDS011;10741;52.272;9.580;2022-07-30T04:51:36;12.13;;;6.97;;
21166;SDS011;10741;52.272;9.580;2022-07-30T04:54:03;11.47;;;6.83;;
21166;SDS011;10741;52.272;9.580;2022-07-30T04:56:33;12.03;;;7.37;;
21166;SDS011;10741;52.272;9.580;2022-07-30T04:58:59;7.87;;;6.70;;
21166;SDS011;10741;52.272;9.580;2022-07-30T05:01:28;11.10;;;7.40;;
21166;SDS011;10741;52.272;9.580;2022-07-30T05:03:58;8.90;;;6.63;;
21166;SDS011;10741;52.272;9.580;2022-07-30T05:06:25;10.10;;;7.30;;
21166;SDS011;10741;52.272;9.580;2022-07-30T05:08:52;8.93;;;6.20;;
21166;SDS011;10741;52.272;9.580;2022-07-30T05:11:18;8.17;;;7.37;;
21166;SDS011;10741;52.272;9.580;2022-07-30T05:13:45;7.87;;;6.47;;
21166;SDS011;10741;52.272;9.580;2022-07-30T05:16:14;9.03;;;6.90;;
21166;SDS011;10741;52.272;9.580;2022-07-30T05:18:41;7.77;;;6.47;;
21166;SDS011;10741;52.272;9.580;2022-07-30T05:21:08;10.50;;;6.67;;
21166;SDS011;10741;52.272;9.580;2022-07-30T05:23:34;8.33;;;7.00;;
21166;SDS011;10741;52.272;9.580;2022-07-30T05:26:00;7.80;;;6.70;;
21166;SDS011;10741;52.272;9.580;2022-07-30T05:28:26;6.90;;;6.20;;
21166;SDS011;10741;52.272;9.580;2022-07-30T05:30:52;8.27;;;6.53;;
21166;SDS011;10741;52.272;9.580;2022-07-30T05:33:19;7.37;;;5.97;;
21166;SDS011;10741;52.272;9.580;2022-07-30T05:35:45;10.23;;;7.10;;
21166;SDS011;10741;52.272;9.580;2022-07-30T05:38:11;12.47;;;6.50;;
21166;SDS011;10741;52.272;9.580;2022-07-30T05:40:37;10.27;;;6.20;;
21166;SDS011;10741;52.272;9.580;2022-07-30T05:43:03;8.17;;;6.30;;
21166;SDS011;10741;52.272;9.580;2022-07-30T05:45:29;7.47;;;6.60;;
21166;SDS011;10741;52.272;9.580;2022-07-30T05:48:01;6.67;;;6.00;;
21166;SDS011;10741;52.272;9.580;2022-07-30T05:50:27;7.30;;;6.57;;
21166;SDS011;10741;52.272;9.580;2022-07-30T05:53:11;8.80;;;6.00;;
21166;SDS011;10741;52.272;9.580;2022-07-30T05:55:37;7.50;;;6.17;;
21166;SDS011;10741;52.272;9.580;2022-07-30T05:58:03;6.53;;;5.77;;
21166;SDS011;10741;52.272;9.580;2022-07-30T06:00:29;7.57;;;6.20;;
21166;SDS011;10741;52.272;9.580;2022-07-30T06:02:54;8.23;;;5.93;;
21166;SDS011;10741;52.272;9.580;2022-07-30T06:05:20;6.23;;;5.53;;
21166;SDS011;10741;52.272;9.580;2022-07-30T06:07:46;8.90;;;5.90;;
21166;SDS011;10741;52.272;9.580;2022-07-30T06:10:12;9.40;;;6.40;;
21166;SDS011;10741;52.272;9.580;2022-07-30T06:12:38;6.60;;;5.90;;
21166;SDS011;10741;52.272;9.580;2022-07-30T06:15:04;6.57;;;5.97;;
21166;SDS011;10741;52.272;9.580;2022-07-30T06:17:30;6.87;;;6.07;;
21166;SDS011;10741;52.272;9.580;2022-07-30T06:19:58;6.47;;;5.50;;
21166;SDS011;10741;52.272;9.580;2022-07-30T06:22:25;7.70;;;6.00;;
21166;SDS011;10741;52.272;9.580;2022-07-30T06:24:51;8.30;;;6.33;;
21166;SDS011;10741;52.272;9.580;2022-07-30T06:27:16;7.20;;;5.70;;
21166;SDS011;10741;52.272;9.580;2022-07-30T06:29:42;7.17;;;5.83;;
21166;SDS011;10741;52.272;9.580;2022-07-30T06:32:09;6.03;;;5.43;;
21166;SDS011;10741;52.272;9.580;2022-07-30T06:34:34;6.30;;;5.80;;
21166;SDS011;10741;52.272;9.580;2022-07-30T06:37:00;7.87;;;6.13;;
21166;SDS011;10741;52.272;9.580;2022-07-30T06:39:26;6.70;;;5.90;;
21166;SDS011;10741;52.272;9.580;2022-07-30T06:41:52;6.40;;;5.80;;
21166;SDS011;10741;52.272;9.580;2022-07-30T06:44:17;5.43;;;5.03;;
21166;SDS011;10741;52.272;9.580;2022-07-30T06:46:43;7.17;;;5.83;;
21166;SDS011;10741;52.272;9.580;2022-07-30T06:49:09;9.17;;;5.40;;
21166;SDS011;10741;52.272;9.580;2022-07-30T06:51:34;7.47;;;5.40;;
21166;SDS011;10741;52.272;9.580;2022-07-30T06:54:00;5.87;;;5.20;;
21166;SDS011;10741;52.272;9.580;2022-07-30T06:56:26;6.90;;;5.20;;
21166;SDS011;10741;52.272;9.580;2022-07-30T06:58:52;8.80;;;5.37;;
21166;SDS011;10741;52.272;9.580;2022-07-30T07:01:17;6.50;;;5.83;;
21166;SDS011;10741;52.272;9.580;2022-07-30T07:03:45;6.37;;;5.60;;
21166;SDS011;10741;52.272;9.580;2022-07-30T07:06:11;7.00;;;5.83;;
21166;SDS011;10741;52.272;9.580;2022-07-30T07:08:36;6.97;;;6.00;;
21166;SDS011;10741;52.272;9.580;2022-07-30T07:11:02;8.73;;;5.83;;
21166;SDS011;10741;52.272;9.580;2022-07-30T07:13:28;6.40;;;5.77;;
21166;SDS011;10741;52.272;9.580;2022-07-30T07:15:54;6.30;;;5.80;;
21166;SDS011;10741;52.272;9.580;2022-07-30T07:18:21;6.20;;;5.60;;
21166;SDS011;10741;52.272;9.580;2022-07-30T07:20:47;7.83;;;5.93;;
21166;SDS011;10741;52.272;9.580;2022-07-30T07:23:13;6.77;;;6.20;;
21166;SDS011;10741;52.272;9.580;2022-07-30T07:25:39;7.23;;;6.53;;
21166;SDS011;10741;52.272;9.580;2022-07-30T07:28:05;6.47;;;5.87;;
21166;SDS011;10741;52.272;9.580;2022-07-30T07:30:32;5.53;;;4.93;;
21166;SDS011;10741;52.272;9.580;2022-07-30T07:32:57;5.80;;;5.30;;
21166;SDS011;10741;52.272;9.580;2022-07-30T07:35:23;6.60;;;4.90;;
21166;SDS011;10741;52.272;9.580;2022-07-30T07:37:49;7.43;;;5.40;;
21166;SDS011;10741;52.272;9.580;2022-07-30T07:40:15;6.47;;;5.47;;
21166;SDS011;10741;52.272;9.580;2022-07-30T07:42:40;5.77;;;5.07;;
21166;SDS011;10741;52.272;9.580;2022-07-30T07:45:06;5.47;;;4.13;;
21166;SDS011;10741;52.272;9.580;2022-07-30T07:47:45;6.20;;;4.57;;
21166;SDS011;10741;52.272;9.580;2022-07-30T07:50:15;5.57;;;4.77;;
21166;SDS011;10741;52.272;9.580;2022-07-30T07:52:42;6.60;;;4.87;;
21166;SDS011;10741;52.272;9.580;2022-07-30T07:55:08;4.53;;;4.13;;
21166;SDS011;10741;52.272;9.580;2022-07-30T07:57:41;4.80;;;4.20;;
21166;SDS011;10741;52.272;9.580;2022-07-30T08:00:09;4.23;;;3.50;;
21166;SDS011;10741;52.272;9.580;2022-07-30T08:02:38;4.30;;;3.90;;
21166;SDS011;10741;52.272;9.580;2022-07-30T08:05:04;5.10;;;3.70;;
21166;SDS011;10741;52.272;9.580;2022-07-30T08:07:31;4.07;;;3.33;;
21166;SDS011;10741;52.272;9.580;2022-07-30T08:09:56;4.47;;;4.07;;
21166;SDS011;10741;52.272;9.580;2022-07-30T08:12:22;4.30;;;3.77;;
21166;SDS011;10741;52.272;9.580;2022-07-30T08:14:48;3.80;;;3.50;;
21166;SDS011;10741;52.272;9.580;2022-07-30T08:17:14;4.07;;;3.60;;
21166;SDS011;10741;52.272;9.580;2022-07-30T08:19:40;3.47;;;3.03;;
21166;SDS011;10741;52.272;9.580;2022-07-30T08:22:05;4.93;;;3.10;;
21166;SDS011;10741;52.272;9.580;2022-07-30T08:24:31;4.60;;;4.10;;
21166;SDS011;10741;52.272;9.580;2022-07-30T08:26:57;4.10;;;3.20;;
21166;SDS011;10741;52.272;9.580;2022-07-30T08:29:23;3.70;;;3.40;;
21166;SDS011;10741;52.272;9.580;2022-07-30T08:31:49;5.33;;;3.40;;
21166;SDS011;10741;52.272;9.580;2022-07-30T08:34:14;3.53;;;3.23;;
21166;SDS011;10741;52.272;9.580;2022-07-30T08:36:40;4.17;;;3.87;;
21166;SDS011;10741;52.272;9.580;2022-07-30T08:39:06;3.30;;;3.03;;
21166;SDS011;10741;52.272;9.580;2022-07-30T08:41:32;4.33;;;3.90;;
21166;SDS011;10741;52.272;9.580;2022-07-30T08:44:00;3.53;;;3.23;;
21166;SDS011;10741;52.272;9.580;2022-07-30T08:46:28;4.10;;;3.33;;
21166;SDS011;10741;52.272;9.580;2022-07-30T08:48:56;3.70;;;3.50;;
21166;SDS011;10741;52.272;9.580;2022-07-30T08:51:23;4.40;;;3.40;;
21166;SDS011;10741;52.272;9.580;2022-07-30T08:53:49;4.10;;;2.97;;
21166;SDS011;10741;52.272;9.580;2022-07-30T08:56:15;3.27;;;3.07;;
21166;SDS011;10741;52.272;9.580;2022-07-30T08:58:41;3.87;;;2.90;;
21166;SDS011;10741;52.272;9.580;2022-07-30T09:01:07;4.00;;;2.70;;
21166;SDS011;10741;52.272;9.580;2022-07-30T09:03:33;3.07;;;2.87;;
21166;SDS011;10741;52.272;9.580;2022-07-30T09:06:02;4.80;;;3.83;;
21166;SDS011;10741;52.272;9.580;2022-07-30T09:08:28;4.63;;;2.57;;
21166;SDS011;10741;52.272;9.580;2022-07-30T09:10:55;4.03;;;2.80;;
21166;SDS011;10741;52.272;9.580;2022-07-30T09:13:27;3.50;;;2.80;;
21166;SDS011;10741;52.272;9.580;2022-07-30T09:15:55;3.33;;;3.13;;
21166;SDS011;10741;52.272;9.580;2022-07-30T09:20:55;4.00;;;2.80;;
21166;SDS011;10741;52.272;9.580;2022-07-30T09:23:22;3.30;;;3.00;;
21166;SDS011;10741;52.272;9.580;2022-07-30T09:25:48;4.60;;;3.20;;
21166;SDS011;10741;52.272;9.580;2022-07-30T09:28:15;5.10;;;3.47;;
21166;SDS011;10741;52.272;9.580;2022-07-30T09:30:48;3.00;;;2.80;;
21166;SDS011;10741;52.272;9.580;2022-07-30T09:36:03;8.23;;;7.53;;
21166;SDS011;10741;52.272;9.580;2022-07-30T09:38:49;3.80;;;3.20;;
21166;SDS011;10741;52.272;9.580;2022-07-30T09:41:18;3.87;;;3.53;;
21166;SDS011;10741;52.272;9.580;2022-07-30T09:44:04;3.53;;;3.23;;
21166;SDS011;10741;52.272;9.580;2022-07-30T09:46:43;6.23;;;2.80;;
21166;SDS011;10741;52.272;9.580;2022-07-30T09:49:16;3.20;;;2.90;;
21166;SDS011;10741;52.272;9.580;2022-07-30T09:51:43;4.90;;;2.90;;
21166;SDS011;10741;52.272;9.580;2022-07-30T09:54:09;3.90;;;2.73;;
21166;SDS011;10741;52.272;9.580;2022-07-30T09:56:35;4.17;;;3.10;;
21166;SDS011;10741;52.272;9.580;2022-07-30T09:59:01;2.87;;;2.67;;
21166;SDS011;10741;52.272;9.580;2022-07-30T10:01:27;3.63;;;3.00;;
21166;SDS011;10741;52.272;9.580;2022-07-30T10:03:53;3.27;;;2.40;;
21166;SDS011;10741;52.272;9.580;2022-07-30T10:06:30;3.53;;;3.00;;
21166;SDS011;10741;52.272;9.580;2022-07-30T10:08:57;3.13;;;2.90;;
21166;SDS011;10741;52.272;9.580;2022-07-30T10:11:23;3.50;;;2.50;;
21166;SDS011;10741;52.272;9.580;2022-07-30T10:13:52;3.43;;;2.93;;
21166;SDS011;10741;52.272;9.580;2022-07-30T10:16:20;6.43;;;2.90;;
21166;SDS011;10741;52.272;9.580;2022-07-30T10:18:48;4.07;;;2.93;;
21166;SDS011;10741;52.272;9.580;2022-07-30T10:21:15;6.37;;;3.83;;
21166;SDS011;10741;52.272;9.580;2022-07-30T10:23:40;4.57;;;4.07;;
21166;SDS011;10741;52.272;9.580;2022-07-30T10:26:07;4.60;;;3.90;;
21166;SDS011;10741;52.272;9.580;2022-07-30T10:28:33;5.87;;;4.23;;
21166;SDS011;10741;52.272;9.580;2022-07-30T10:31:00;17.43;;;5.30;;
21166;SDS011;10741;52.272;9.580;2022-07-30T10:33:26;5.27;;;3.93;;
21166;SDS011;10741;52.272;9.580;2022-07-30T10:35:53;6.60;;;4.40;;
21166;SDS011;10741;52.272;9.580;2022-07-30T10:38:20;5.90;;;4.53;;
21166;SDS011;10741;52.272;9.580;2022-07-30T10:41:03;4.90;;;4.23;;
21166;SDS011;10741;52.272;9.580;2022-07-30T10:49:21;4.70;;;4.30;;
21166;SDS011;10741;52.272;9.580;2022-07-30T10:51:47;4.93;;;4.10;;
21166;SDS011;10741;52.272;9.580;2022-07-30T10:57:08;5.83;;;4.00;;
21166;SDS011;10741;52.272;9.580;2022-07-30T11:02:17;4.20;;;3.80;;
21166;SDS011;10741;52.272;9.580;2022-07-30T11:04:44;3.67;;;3.37;;
21166;SDS011;10741;52.272;9.580;2022-07-30T11:09:49;3.87;;;3.57;;
21166;SDS011;10741;52.272;9.580;2022-07-30T11:12:15;20.33;;;19.10;;
21166;SDS011;10741;52.272;9.580;2022-07-30T11:15:08;26.70;;;25.00;;
21166;SDS011;10741;52.272;9.580;2022-07-30T11:20:34;20.00;;;18.80;;
21166;SDS011;10741;52.272;9.580;2022-07-30T11:25:59;15.73;;;14.63;;
21166;SDS011;10741;52.272;9.580;2022-07-30T11:28:40;13.50;;;12.67;;
21166;SDS011;10741;52.272;9.580;2022-07-30T11:31:27;14.77;;;13.87;;
21166;SDS011;10741;52.272;9.580;2022-07-30T11:40:32;20.77;;;19.47;;
21166;SDS011;10741;52.272;9.580;2022-07-30T11:42:26;17.17;;;16.13;;
21166;SDS011;10741;52.272;9.580;2022-07-30T11:44:53;19.67;;;18.47;;
21166;SDS011;10741;52.272;9.580;2022-07-30T11:47:42;22.87;;;21.57;;
21166;SDS011;10741;52.272;9.580;2022-07-30T11:50:18;23.50;;;21.93;;
21166;SDS011;10741;52.272;9.580;2022-07-30T11:53:09;25.87;;;24.27;;
21166;SDS011;10741;52.272;9.580;2022-07-30T11:55:53;38.93;;;36.73;;
21166;SDS011;10741;52.272;9.580;2022-07-30T12:01:04;42.97;;;40.47;;
21166;SDS011;10741;52.272;9.580;2022-07-30T12:03:44;53.20;;;50.07;;
21166;SDS011;10741;52.272;9.580;2022-07-30T12:06:13;55.87;;;52.60;;
21166;SDS011;10741;52.272;9.580;2022-07-30T12:08:47;52.63;;;49.47;;
21166;SDS011;10741;52.272;9.580;2022-07-30T12:11:15;46.10;;;43.37;;
21166;SDS011;10741;52.272;9.580;2022-07-30T12:13:41;40.10;;;37.80;;
21166;SDS011;10741;52.272;9.580;2022-07-30T12:16:11;31.07;;;29.10;;
21166;SDS011;10741;52.272;9.580;2022-07-30T12:18:39;22.40;;;21.13;;
21166;SDS011;10741;52.272;9.580;2022-07-30T12:21:06;22.00;;;20.60;;
21166;SDS011;10741;52.272;9.580;2022-07-30T12:23:37;23.20;;;21.80;;
21166;SDS011;10741;52.272;9.580;2022-07-30T12:26:05;23.60;;;22.13;;
21166;SDS011;10741;52.272;9.580;2022-07-30T12:28:33;17.17;;;16.07;;
21166;SDS011;10741;52.272;9.580;2022-07-30T12:30:59;21.23;;;20.03;;
21166;SDS011;10741;52.272;9.580;2022-07-30T12:33:29;20.23;;;19.03;;
21166;SDS011;10741;52.272;9.580;2022-07-30T12:35:55;16.00;;;15.00;;
21166;SDS011;10741;52.272;9.580;2022-07-30T12:38:24;16.50;;;15.23;;
21166;SDS011;10741;52.272;9.580;2022-07-30T12:40:54;11.53;;;10.80;;
21166;SDS011;10741;52.272;9.580;2022-07-30T12:48:47;17.47;;;16.23;;
21166;SDS011;10741;52.272;9.580;2022-07-30T12:51:14;16.13;;;15.00;;
21166;SDS011;10741;52.272;9.580;2022-07-30T12:53:40;10.33;;;9.53;;
21166;SDS011;10741;52.272;9.580;2022-07-30T12:56:13;12.63;;;11.93;;
21166;SDS011;10741;52.272;9.580;2022-07-30T12:58:41;9.77;;;9.07;;
21166;SDS011;10741;52.272;9.580;2022-07-30T13:01:08;12.20;;;11.37;;
21166;SDS011;10741;52.272;9.580;2022-07-30T13:03:35;11.10;;;10.07;;
21166;SDS011;10741;52.272;9.580;2022-07-30T13:06:15;9.73;;;8.90;;
21166;SDS011;10741;52.272;9.580;2022-07-30T13:08:49;10.30;;;9.60;;
21166;SDS011;10741;52.272;9.580;2022-07-30T13:11:16;11.43;;;10.43;;
21166;SDS011;10741;52.272;9.580;2022-07-30T13:13:43;9.13;;;8.43;;
21166;SDS011;10741;52.272;9.580;2022-07-30T13:16:09;10.93;;;10.27;;
21166;SDS011;10741;52.272;9.580;2022-07-30T13:18:36;9.47;;;8.77;;
21166;SDS011;10741;52.272;9.580;2022-07-30T13:21:02;12.83;;;12.03;;
21166;SDS011;10741;52.272;9.580;2022-07-30T13:23:29;10.77;;;9.87;;
21166;SDS011;10741;52.272;9.580;2022-07-30T13:25:55;14.37;;;13.27;;
21166;SDS011;10741;52.272;9.580;2022-07-30T13:28:21;13.33;;;12.43;;
21166;SDS011;10741;52.272;9.580;2022-07-30T13:30:48;15.37;;;14.27;;
21166;SDS011;10741;52.272;9.580;2022-07-30T13:33:14;15.17;;;14.07;;
21166;SDS011;10741;52.272;9.580;2022-07-30T13:35:40;17.00;;;15.90;;
21166;SDS011;10741;52.272;9.580;2022-07-30T13:38:05;17.80;;;16.53;;
21166;SDS011;10741;52.272;9.580;2022-07-30T13:40:32;13.23;;;12.27;;
21166;SDS011;10741;52.272;9.580;2022-07-30T13:42:58;19.83;;;18.63;;
21166;SDS011;10741;52.272;9.580;2022-07-30T13:45:25;16.47;;;15.23;;
21166;SDS011;10741;52.272;9.580;2022-07-30T13:47:51;18.50;;;17.20;;
21166;SDS011;10741;52.272;9.580;2022-07-30T13:50:17;16.97;;;15.87;;
21166;SDS011;10741;52.272;9.580;2022-07-30T13:52:43;14.17;;;13.17;;
21166;SDS011;10741;52.272;9.580;2022-07-30T13:55:08;13.03;;;12.23;;
21166;SDS011;10741;52.272;9.580;2022-07-30T13:57:34;17.83;;;16.37;;
21166;SDS011;10741;52.272;9.580;2022-07-30T14:00:00;15.67;;;14.20;;
21166;SDS011;10741;52.272;9.580;2022-07-30T14:02:27;12.83;;;11.93;;
21166;SDS011;10741;52.272;9.580;2022-07-30T14:04:52;11.17;;;10.27;;
21166;SDS011;10741;52.272;9.580;2022-07-30T14:07:18;16.00;;;14.90;;
21166;SDS011;10741;52.272;9.580;2022-07-30T14:09:44;16.17;;;14.97;;
21166;SDS011;10741;52.272;9.580;2022-07-30T14:12:10;15.20;;;14.03;;
21166;SDS011;10741;52.272;9.580;2022-07-30T14:14:35;18.37;;;17.07;;
21166;SDS011;10741;52.272;9.580;2022-07-30T14:17:01;16.70;;;15.43;;
21166;SDS011;10741;52.272;9.580;2022-07-30T14:19:27;17.70;;;16.50;;
21166;SDS011;10741;52.272;9.580;2022-07-30T14:21:53;20.37;;;19.17;;
21166;SDS011;10741;52.272;9.580;2022-07-30T14:24:19;20.47;;;19.07;;
21166;SDS011;10741;52.272;9.580;2022-07-30T14:26:46;16.63;;;15.47;;
21166;SDS011;10741;52.272;9.580;2022-07-30T14:29:12;19.90;;;18.70;;
21166;SDS011;10741;52.272;9.580;2022-07-30T14:31:37;17.70;;;16.70;;
21166;SDS011;10741;52.272;9.580;2022-07-30T14:34:04;23.03;;;21.70;;
21166;SDS011;10741;52.272;9.580;2022-07-30T14:36:30;22.07;;;20.87;;
21166;SDS011;10741;52.272;9.580;2022-07-30T14:38:56;22.27;;;20.83;;
21166;SDS011;10741;52.272;9.580;2022-07-30T14:41:23;23.63;;;21.93;;
21166;SDS011;10741;52.272;9.580;2022-07-30T14:43:49;23.13;;;21.60;;
21166;SDS011;10741;52.272;9.580;2022-07-30T14:46:15;18.53;;;17.43;;
21166;SDS011;10741;52.272;9.580;2022-07-30T14:48:41;21.77;;;20.37;;
21166;SDS011;10741;52.272;9.580;2022-07-30T14:51:07;22.47;;;21.17;;
21166;SDS011;10741;52.272;9.580;2022-07-30T14:53:33;20.63;;;19.30;;
21166;SDS011;10741;52.272;9.580;2022-07-30T14:55:59;21.33;;;20.03;;
21166;SDS011;10741;52.272;9.580;2022-07-30T14:58:24;24.27;;;22.57;;
21166;SDS011;10741;52.272;9.580;2022-07-30T15:00:50;21.43;;;20.03;;
21166;SDS011;10741;52.272;9.580;2022-07-30T15:03:16;21.77;;;20.47;;
21166;SDS011;10741;52.272;9.580;2022-07-30T15:05:42;20.63;;;19.27;;
21166;SDS011;10741;52.272;9.580;2022-07-30T15:08:08;22.33;;;21.03;;
21166;SDS011;10741;52.272;9.580;2022-07-30T15:10:34;19.33;;;18.17;;
21166;SDS011;10741;52.272;9.580;2022-07-30T15:13:00;20.90;;;19.43;;
21166;SDS011;10741;52.272;9.580;2022-07-30T15:15:26;17.63;;;16.53;;
21166;SDS011;10741;52.272;9.580;2022-07-30T15:17:52;21.03;;;19.73;;
21166;SDS011;10741;52.272;9.580;2022-07-30T15:20:18;18.90;;;17.73;;
21166;SDS011;10741;52.272;9.580;2022-07-30T15:22:44;17.60;;;16.50;;
21166;SDS011;10741;52.272;9.580;2022-07-30T15:25:09;18.17;;;16.67;;
21166;SDS011;10741;52.272;9.580;2022-07-30T15:27:35;17.80;;;16.63;;
21166;SDS011;10741;52.272;9.580;2022-07-30T15:30:01;16.67;;;15.63;;